sensor_id;sensor_type;location;lat;lon;timestamp;temperature;humidity
4820;DHT22;2424;49.696;6.630;2022-09-09T00:04:22;16.60;99.90
4820;DHT22;2424;49.696;6.630;2022-09-09T00:09:48;16.50;99.90
4820;DHT22;2424;49.696;6.630;2022-09-09T00:15:13;16.50;99.90
4820;DHT22;2424;49.696;6.630;2022-09-09T00:20:41;16.50;99.90
4820;DHT22;2424;49.696;6.630;2022-09-09T00:26:11;16.50;99.90
4820;DHT22;2424;49.696;6.630;2022-09-09T00:31:36;16.50;99.90
4820;DHT22;2424;49.696;6.630;2022-09-09T00:37:00;16.40;99.90
4820;DHT22;2424;49.696;6.630;2022-09-09T00:42:26;16.50;99.90
4820;DHT22;2424;49.696;6.630;2022-09-09T00:47:50;16.50;99.90
4820;DHT22;2424;49.696;6.630;2022-09-09T00:53:26;16.50;99.90
4820;DHT22;2424;49.696;6.630;2022-09-09T00:58:54;16.60;99.90
4820;DHT22;2424;49.696;6.630;2022-09-09T01:04:29;16.60;99.90
4820;DHT22;2424;49.696;6.630;2022-09-09T01:09:56;16.50;99.90
4820;DHT22;2424;49.696;6.630;2022-09-09T01:15:22;16.50;99.90
4820;DHT22;2424;49.696;6.630;2022-09-09T01:20:53;16.50;99.90
4820;DHT22;2424;49.696;6.630;2022-09-09T01:26:25;16.50;99.90
4820;DHT22;2424;49.696;6.630;2022-09-09T01:31:54;16.50;99.90
4820;DHT22;2424;49.696;6.630;2022-09-09T01:37:16;16.40;99.90
4820;DHT22;2424;49.696;6.630;2022-09-09T01:42:39;16.30;99.90
4820;DHT22;2424;49.696;6.630;2022-09-09T01:48:02;16.40;99.90
4820;DHT22;2424;49.696;6.630;2022-09-09T01:53:24;16.30;99.90
4820;DHT22;2424;49.696;6.630;2022-09-09T01:59:02;16.30;99.90
4820;DHT22;2424;49.696;6.630;2022-09-09T02:04:35;16.30;99.90
4820;DHT22;2424;49.696;6.630;2022-09-09T02:10:02;16.30;99.90
4820;DHT22;2424;49.696;6.630;2022-09-09T02:15:32;16.30;99.90
4820;DHT22;2424;49.696;6.630;2022-09-09T02:20:56;16.20;99.90
4820;DHT22;2424;49.696;6.630;2022-09-09T02:26:20;16.20;99.90
4820;DHT22;2424;49.696;6.630;2022-09-09T02:31:46;16.20;99.90
4820;DHT22;2424;49.696;6.630;2022-09-09T02:37:11;16.20;99.90
4820;DHT22;2424;49.696;6.630;2022-09-09T02:42:38;16.20;99.90
4820;DHT22;2424;49.696;6.630;2022-09-09T02:48:09;16.20;99.90
4820;DHT22;2424;49.696;6.630;2022-09-09T02:53:38;16.20;99.90
4820;DHT22;2424;49.696;6.630;2022-09-09T02:59:03;16.20;99.90
4820;DHT22;2424;49.696;6.630;2022-09-09T03:04:27;16.20;99.90
4820;DHT22;2424;49.696;6.630;2022-09-09T03:09:49;16.30;99.90
4820;DHT22;2424;49.696;6.630;2022-09-09T03:15:13;16.20;99.90
4820;DHT22;2424;49.696;6.630;2022-09-09T03:20:37;16.20;99.90
4820;DHT22;2424;49.696;6.630;2022-09-09T03:25:59;16.20;99.90
4820;DHT22;2424;49.696;6.630;2022-09-09T03:31:21;16.10;99.90
4820;DHT22;2424;49.696;6.630;2022-09-09T03:36:44;16.10;99.90
4820;DHT22;2424;49.696;6.630;2022-09-09T03:42:09;16.10;99.90
4820;DHT22;2424;49.696;6.630;2022-09-09T03:47:31;16.10;99.90
4820;DHT22;2424;49.696;6.630;2022-09-09T03:52:55;16.00;99.90
4820;DHT22;2424;49.696;6.630;2022-09-09T03:58:17;16.10;99.90
4820;DHT22;2424;49.696;6.630;2022-09-09T04:03:39;16.10;99.90
4820;DHT22;2424;49.696;6.630;2022-09-09T04:09:03;16.10;99.90
4820;DHT22;2424;49.696;6.630;2022-09-09T04:14:26;16.00;99.90
4820;DHT22;2424;49.696;6.630;2022-09-09T04:19:49;16.10;99.90
4820;DHT22;2424;49.696;6.630;2022-09-09T04:25:13;16.10;99.90
4820;DHT22;2424;49.696;6.630;2022-09-09T04:30:35;16.10;99.90
4820;DHT22;2424;49.696;6.630;2022-09-09T04:35:57;16.00;99.90
4820;DHT22;2424;49.696;6.630;2022-09-09T04:41:20;16.00;99.90
4820;DHT22;2424;49.696;6.630;2022-09-09T04:46:42;16.00;99.90
4820;DHT22;2424;49.696;6.630;2022-09-09T04:52:05;16.00;99.90
4820;DHT22;2424;49.696;6.630;2022-09-09T04:57:29;16.00;99.90
4820;DHT22;2424;49.696;6.630;2022-09-09T05:02:52;15.90;99.90
4820;DHT22;2424;49.696;6.630;2022-09-09T05:08:14;15.90;99.90
4820;DHT22;2424;49.696;6.630;2022-09-09T05:13:37;15.90;99.90
4820;DHT22;2424;49.696;6.630;2022-09-09T05:19:00;15.90;99.90
4820;DHT22;2424;49.696;6.630;2022-09-09T05:24:23;15.90;99.90
4820;DHT22;2424;49.696;6.630;2022-09-09T05:29:47;15.90;99.90
4820;DHT22;2424;49.696;6.630;2022-09-09T05:35:09;15.80;99.90
4820;DHT22;2424;49.696;6.630;2022-09-09T05:40:30;16.00;99.90
4820;DHT22;2424;49.696;6.630;2022-09-09T05:46:02;15.90;99.90
4820;DHT22;2424;49.696;6.630;2022-09-09T05:51:27;15.90;99.90
4820;DHT22;2424;49.696;6.630;2022-09-09T05:56:50;15.90;99.90
4820;DHT22;2424;49.696;6.630;2022-09-09T06:02:15;15.90;99.90
4820;DHT22;2424;49.696;6.630;2022-09-09T06:07:37;15.90;99.90
4820;DHT22;2424;49.696;6.630;2022-09-09T06:13:02;15.90;99.90
4820;DHT22;2424;49.696;6.630;2022-09-09T06:18:26;15.90;99.90
4820;DHT22;2424;49.696;6.630;2022-09-09T06:23:48;15.80;99.90
4820;DHT22;2424;49.696;6.630;2022-09-09T06:29:12;15.80;99.90
4820;DHT22;2424;49.696;6.630;2022-09-09T06:34:35;15.80;99.90
4820;DHT22;2424;49.696;6.630;2022-09-09T06:39:57;15.90;99.90
4820;DHT22;2424;49.696;6.630;2022-09-09T06:45:19;15.80;99.90
4820;DHT22;2424;49.696;6.630;2022-09-09T06:50:42;15.90;99.90
4820;DHT22;2424;49.696;6.630;2022-09-09T06:56:19;16.10;99.90
4820;DHT22;2424;49.696;6.630;2022-09-09T07:01:43;16.10;99.90
4820;DHT22;2424;49.696;6.630;2022-09-09T07:07:06;16.10;99.90
4820;DHT22;2424;49.696;6.630;2022-09-09T07:12:29;16.20;99.90
4820;DHT22;2424;49.696;6.630;2022-09-09T07:17:51;16.20;99.90
4820;DHT22;2424;49.696;6.630;2022-09-09T07:23:15;16.20;99.90
4820;DHT22;2424;49.696;6.630;2022-09-09T07:28:37;16.10;99.90
4820;DHT22;2424;49.696;6.630;2022-09-09T07:34:00;16.30;99.90
4820;DHT22;2424;49.696;6.630;2022-09-09T07:39:24;16.20;99.90
4820;DHT22;2424;49.696;6.630;2022-09-09T07:44:46;16.10;99.90
4820;DHT22;2424;49.696;6.630;2022-09-09T07:50:08;16.20;99.90
4820;DHT22;2424;49.696;6.630;2022-09-09T07:55:31;16.00;99.90
4820;DHT22;2424;49.696;6.630;2022-09-09T08:00:53;16.10;99.90
4820;DHT22;2424;49.696;6.630;2022-09-09T08:06:15;16.10;99.90
4820;DHT22;2424;49.696;6.630;2022-09-09T08:11:39;16.10;99.90
4820;DHT22;2424;49.696;6.630;2022-09-09T08:17:01;16.20;99.90
4820;DHT22;2424;49.696;6.630;2022-09-09T08:22:24;16.20;99.90
4820;DHT22;2424;49.696;6.630;2022-09-09T08:27:48;16.30;99.90
4820;DHT22;2424;49.696;6.630;2022-09-09T08:33:10;16.30;99.90
4820;DHT22;2424;49.696;6.630;2022-09-09T08:38:32;16.30;99.90
4820;DHT22;2424;49.696;6.630;2022-09-09T08:44:04;16.40;99.90
4820;DHT22;2424;49.696;6.630;2022-09-09T08:49:51;16.40;99.90
4820;DHT22;2424;49.696;6.630;2022-09-09T08:55:24;16.50;99.90
4820;DHT22;2424;49.696;6.630;2022-09-09T09:01:17;16.70;99.90
4820;DHT22;2424;49.696;6.630;2022-09-09T09:06:50;16.80;99.90
4820;DHT22;2424;49.696;6.630;2022-09-09T09:12:18;16.90;99.90
4820;DHT22;2424;49.696;6.630;2022-09-09T09:17:42;17.10;99.90
4820;DHT22;2424;49.696;6.630;2022-09-09T09:23:05;17.10;99.90
4820;DHT22;2424;49.696;6.630;2022-09-09T09:28:30;17.30;99.90
4820;DHT22;2424;49.696;6.630;2022-09-09T09:33:56;17.70;99.90
4820;DHT22;2424;49.696;6.630;2022-09-09T09:39:25;17.60;99.90
4820;DHT22;2424;49.696;6.630;2022-09-09T09:44:47;17.50;99.90
4820;DHT22;2424;49.696;6.630;2022-09-09T09:50:18;17.20;99.90
4820;DHT22;2424;49.696;6.630;2022-09-09T09:55:46;17.20;99.90
4820;DHT22;2424;49.696;6.630;2022-09-09T10:01:20;17.40;99.90
4820;DHT22;2424;49.696;6.630;2022-09-09T10:06:44;17.40;99.90
4820;DHT22;2424;49.696;6.630;2022-09-09T10:12:13;17.50;99.90
4820;DHT22;2424;49.696;6.630;2022-09-09T10:17:47;17.60;99.90
4820;DHT22;2424;49.696;6.630;2022-09-09T10:23:26;17.80;99.90
4820;DHT22;2424;49.696;6.630;2022-09-09T10:29:19;17.80;99.90
4820;DHT22;2424;49.696;6.630;2022-09-09T10:34:55;17.80;99.90
4820;DHT22;2424;49.696;6.630;2022-09-09T10:40:32;17.90;99.90
4820;DHT22;2424;49.696;6.630;2022-09-09T10:46:00;18.30;99.90
4820;DHT22;2424;49.696;6.630;2022-09-09T10:51:30;18.50;99.90
4820;DHT22;2424;49.696;6.630;2022-09-09T10:56:58;18.60;99.90
4820;DHT22;2424;49.696;6.630;2022-09-09T11:02:26;18.50;99.90
4820;DHT22;2424;49.696;6.630;2022-09-09T11:07:52;18.50;99.90
4820;DHT22;2424;49.696;6.630;2022-09-09T11:13:22;18.40;99.90
4820;DHT22;2424;49.696;6.630;2022-09-09T11:18:46;18.50;99.90
4820;DHT22;2424;49.696;6.630;2022-09-09T11:24:13;18.50;99.90
4820;DHT22;2424;49.696;6.630;2022-09-09T11:30:02;18.60;99.90
4820;DHT22;2424;49.696;6.630;2022-09-09T11:35:33;18.60;99.90
4820;DHT22;2424;49.696;6.630;2022-09-09T11:40:56;18.40;99.90
4820;DHT22;2424;49.696;6.630;2022-09-09T11:46:31;17.80;99.90
4820;DHT22;2424;49.696;6.630;2022-09-09T11:51:54;17.50;99.90
4820;DHT22;2424;49.696;6.630;2022-09-09T11:57:26;17.30;99.90
4820;DHT22;2424;49.696;6.630;2022-09-09T12:02:50;17.20;99.90
4820;DHT22;2424;49.696;6.630;2022-09-09T12:08:18;17.50;99.90
4820;DHT22;2424;49.696;6.630;2022-09-09T12:13:52;18.10;99.90
4820;DHT22;2424;49.696;6.630;2022-09-09T12:19:18;18.50;99.90
4820;DHT22;2424;49.696;6.630;2022-09-09T12:24:46;18.70;99.90
4820;DHT22;2424;49.696;6.630;2022-09-09T12:30:14;18.90;99.90
4820;DHT22;2424;49.696;6.630;2022-09-09T12:35:38;19.10;99.90
4820;DHT22;2424;49.696;6.630;2022-09-09T12:41:00;19.60;99.90
4820;DHT22;2424;49.696;6.630;2022-09-09T12:46:29;19.80;99.90
4820;DHT22;2424;49.696;6.630;2022-09-09T12:51:55;19.70;99.90
4820;DHT22;2424;49.696;6.630;2022-09-09T12:57:20;20.10;99.90
4820;DHT22;2424;49.696;6.630;2022-09-09T13:02:49;20.00;99.90
4820;DHT22;2424;49.696;6.630;2022-09-09T13:08:14;20.00;99.90
4820;DHT22;2424;49.696;6.630;2022-09-09T13:13:42;19.90;99.90
4820;DHT22;2424;49.696;6.630;2022-09-09T13:19:08;20.00;99.90
4820;DHT22;2424;49.696;6.630;2022-09-09T13:24:33;20.10;99.90
4820;DHT22;2424;49.696;6.630;2022-09-09T13:29:56;20.40;99.90
4820;DHT22;2424;49.696;6.630;2022-09-09T13:35:23;20.10;99.90
4820;DHT22;2424;49.696;6.630;2022-09-09T13:40:54;20.00;99.90
4820;DHT22;2424;49.696;6.630;2022-09-09T13:46:26;20.30;99.90
4820;DHT22;2424;49.696;6.630;2022-09-09T13:52:02;19.80;99.90
4820;DHT22;2424;49.696;6.630;2022-09-09T13:57:26;19.50;99.90
4820;DHT22;2424;49.696;6.630;2022-09-09T14:02:49;19.30;99.90
4820;DHT22;2424;49.696;6.630;2022-09-09T14:08:23;18.80;99.90
4820;DHT22;2424;49.696;6.630;2022-09-09T14:13:47;17.30;99.90
4820;DHT22;2424;49.696;6.630;2022-09-09T14:19:10;17.00;99.90
4820;DHT22;2424;49.696;6.630;2022-09-09T14:24:32;16.80;99.90
4820;DHT22;2424;49.696;6.630;2022-09-09T14:29:55;16.40;99.90
4820;DHT22;2424;49.696;6.630;2022-09-09T14:35:18;16.60;99.90
4820;DHT22;2424;49.696;6.630;2022-09-09T14:40:40;16.60;99.90
4820;DHT22;2424;49.696;6.630;2022-09-09T14:46:06;16.70;99.90
4820;DHT22;2424;49.696;6.630;2022-09-09T14:51:29;16.70;99.90
4820;DHT22;2424;49.696;6.630;2022-09-09T14:56:51;16.70;99.90
4820;DHT22;2424;49.696;6.630;2022-09-09T15:02:14;16.80;99.90
4820;DHT22;2424;49.696;6.630;2022-09-09T15:07:37;16.90;99.90
4820;DHT22;2424;49.696;6.630;2022-09-09T15:12:59;17.20;99.90
4820;DHT22;2424;49.696;6.630;2022-09-09T15:18:22;17.40;99.90
4820;DHT22;2424;49.696;6.630;2022-09-09T15:23:45;17.40;99.90
4820;DHT22;2424;49.696;6.630;2022-09-09T15:29:08;17.60;99.90
4820;DHT22;2424;49.696;6.630;2022-09-09T15:34:31;17.80;99.90
4820;DHT22;2424;49.696;6.630;2022-09-09T15:39:53;17.90;99.90
4820;DHT22;2424;49.696;6.630;2022-09-09T15:45:15;17.70;99.90
4820;DHT22;2424;49.696;6.630;2022-09-09T15:50:39;17.60;99.90
4820;DHT22;2424;49.696;6.630;2022-09-09T15:56:01;17.60;99.90
4820;DHT22;2424;49.696;6.630;2022-09-09T16:01:24;17.50;99.90
4820;DHT22;2424;49.696;6.630;2022-09-09T16:06:48;17.20;99.90
4820;DHT22;2424;49.696;6.630;2022-09-09T16:12:10;16.90;99.90
4820;DHT22;2424;49.696;6.630;2022-09-09T16:17:33;16.10;99.90
4820;DHT22;2424;49.696;6.630;2022-09-09T16:22:59;16.30;99.90
4820;DHT22;2424;49.696;6.630;2022-09-09T16:28:22;16.20;99.90
4820;DHT22;2424;49.696;6.630;2022-09-09T16:33:45;16.00;99.90
4820;DHT22;2424;49.696;6.630;2022-09-09T16:39:11;16.00;99.90
4820;DHT22;2424;49.696;6.630;2022-09-09T16:44:33;16.10;99.90
4820;DHT22;2424;49.696;6.630;2022-09-09T16:49:55;16.20;99.90
4820;DHT22;2424;49.696;6.630;2022-09-09T16:55:19;16.30;99.90
4820;DHT22;2424;49.696;6.630;2022-09-09T17:00:41;16.30;99.90
4820;DHT22;2424;49.696;6.630;2022-09-09T17:06:03;16.20;99.90
4820;DHT22;2424;49.696;6.630;2022-09-09T17:11:31;16.00;99.90
4820;DHT22;2424;49.696;6.630;2022-09-09T17:16:53;16.00;99.90
4820;DHT22;2424;49.696;6.630;2022-09-09T17:22:16;15.90;99.90
4820;DHT22;2424;49.696;6.630;2022-09-09T17:27:40;16.00;99.90
4820;DHT22;2424;49.696;6.630;2022-09-09T17:33:02;15.90;99.90
4820;DHT22;2424;49.696;6.630;2022-09-09T17:38:24;15.90;99.90
4820;DHT22;2424;49.696;6.630;2022-09-09T17:43:52;15.80;99.90
4820;DHT22;2424;49.696;6.630;2022-09-09T17:49:16;15.80;99.90
4820;DHT22;2424;49.696;6.630;2022-09-09T17:54:38;15.80;99.90
4820;DHT22;2424;49.696;6.630;2022-09-09T18:00:04;15.70;99.90
4820;DHT22;2424;49.696;6.630;2022-09-09T18:05:27;15.70;99.90
4820;DHT22;2424;49.696;6.630;2022-09-09T18:10:52;15.70;99.90
4820;DHT22;2424;49.696;6.630;2022-09-09T18:16:17;15.80;99.90
4820;DHT22;2424;49.696;6.630;2022-09-09T18:21:40;15.70;99.90
4820;DHT22;2424;49.696;6.630;2022-09-09T18:27:03;15.70;99.90
4820;DHT22;2424;49.696;6.630;2022-09-09T18:32:26;15.70;99.90
4820;DHT22;2424;49.696;6.630;2022-09-09T18:37:50;15.60;99.90
4820;DHT22;2424;49.696;6.630;2022-09-09T18:43:12;15.60;99.90
4820;DHT22;2424;49.696;6.630;2022-09-09T18:48:35;15.60;99.90
4820;DHT22;2424;49.696;6.630;2022-09-09T18:54:00;15.50;99.90
4820;DHT22;2424;49.696;6.630;2022-09-09T18:59:23;15.50;99.90
4820;DHT22;2424;49.696;6.630;2022-09-09T19:04:46;15.50;99.90
4820;DHT22;2424;49.696;6.630;2022-09-09T19:10:09;15.50;99.90
4820;DHT22;2424;49.696;6.630;2022-09-09T19:15:34;15.50;99.90
4820;DHT22;2424;49.696;6.630;2022-09-09T19:21:08;15.50;99.90
4820;DHT22;2424;49.696;6.630;2022-09-09T19:26:32;15.50;99.90
4820;DHT22;2424;49.696;6.630;2022-09-09T19:31:58;15.60;99.90
4820;DHT22;2424;49.696;6.630;2022-09-09T19:37:22;15.60;99.90
4820;DHT22;2424;49.696;6.630;2022-09-09T19:42:44;15.50;99.90
4820;DHT22;2424;49.696;6.630;2022-09-09T19:48:07;15.50;99.90
4820;DHT22;2424;49.696;6.630;2022-09-09T19:53:31;15.50;99.90
4820;DHT22;2424;49.696;6.630;2022-09-09T19:58:56;15.40;99.90
4820;DHT22;2424;49.696;6.630;2022-09-09T20:04:19;15.50;99.90
4820;DHT22;2424;49.696;6.630;2022-09-09T20:09:42;15.50;99.90
4820;DHT22;2424;49.696;6.630;2022-09-09T20:15:05;15.50;99.90
4820;DHT22;2424;49.696;6.630;2022-09-09T20:20:29;15.40;99.90
4820;DHT22;2424;49.696;6.630;2022-09-09T20:25:52;15.40;99.90
4820;DHT22;2424;49.696;6.630;2022-09-09T20:31:16;15.40;99.90
4820;DHT22;2424;49.696;6.630;2022-09-09T20:36:40;15.30;99.90
4820;DHT22;2424;49.696;6.630;2022-09-09T20:42:04;15.30;99.90
4820;DHT22;2424;49.696;6.630;2022-09-09T20:47:27;15.40;99.90
4820;DHT22;2424;49.696;6.630;2022-09-09T20:52:52;15.50;99.90
4820;DHT22;2424;49.696;6.630;2022-09-09T20:58:15;15.40;99.90
4820;DHT22;2424;49.696;6.630;2022-09-09T21:03:37;15.40;99.90
4820;DHT22;2424;49.696;6.630;2022-09-09T21:08:59;15.40;99.90
4820;DHT22;2424;49.696;6.630;2022-09-09T21:14:23;15.40;99.90
4820;DHT22;2424;49.696;6.630;2022-09-09T21:19:49;15.40;99.90
4820;DHT22;2424;49.696;6.630;2022-09-09T21:25:11;15.40;99.90
4820;DHT22;2424;49.696;6.630;2022-09-09T21:30:37;15.30;99.90
4820;DHT22;2424;49.696;6.630;2022-09-09T21:36:04;15.30;99.90
4820;DHT22;2424;49.696;6.630;2022-09-09T21:41:26;15.10;99.90
4820;DHT22;2424;49.696;6.630;2022-09-09T21:46:50;15.10;99.90
4820;DHT22;2424;49.696;6.630;2022-09-09T21:52:12;15.00;99.90
4820;DHT22;2424;49.696;6.630;2022-09-09T21:57:35;15.00;99.90
4820;DHT22;2424;49.696;6.630;2022-09-09T22:02:59;15.00;99.90
4820;DHT22;2424;49.696;6.630;2022-09-09T22:08:22;15.00;99.90
4820;DHT22;2424;49.696;6.630;2022-09-09T22:13:44;14.90;99.90
4820;DHT22;2424;49.696;6.630;2022-09-09T22:19:08;14.80;99.90
4820;DHT22;2424;49.696;6.630;2022-09-09T22:24:30;14.80;99.90
4820;DHT22;2424;49.696;6.630;2022-09-09T22:29:52;14.80;99.90
4820;DHT22;2424;49.696;6.630;2022-09-09T22:35:15;14.80;99.90
4820;DHT22;2424;49.696;6.630;2022-09-09T22:40:39;14.80;99.90
4820;DHT22;2424;49.696;6.630;2022-09-09T22:46:02;14.80;99.90
4820;DHT22;2424;49.696;6.630;2022-09-09T22:51:25;14.80;99.90
4820;DHT22;2424;49.696;6.630;2022-09-09T22:56:47;14.70;99.90
4820;DHT22;2424;49.696;6.630;2022-09-09T23:02:10;14.70;99.90
4820;DHT22;2424;49.696;6.630;2022-09-09T23:07:34;14.60;99.90
4820;DHT22;2424;49.696;6.630;2022-09-09T23:12:56;14.80;99.90
4820;DHT22;2424;49.696;6.630;2022-09-09T23:18:18;14.80;99.90
4820;DHT22;2424;49.696;6.630;2022-09-09T23:23:51;14.80;99.90
4820;DHT22;2424;49.696;6.630;2022-09-09T23:29:14;14.70;99.90
4820;DHT22;2424;49.696;6.630;2022-09-09T23:34:36;14.80;99.90
4820;DHT22;2424;49.696;6.630;2022-09-09T23:40:01;14.70;99.90
4820;DHT22;2424;49.696;6.630;2022-09-09T23:45:23;14.70;99.90
4820;DHT22;2424;49.696;6.630;2022-09-09T23:50:46;14.70;99.90
4820;DHT22;2424;49.696;6.630;2022-09-09T23:56:11;14.70;99.90
